Time;durP1;ratioP1;P1;durP2;ratioP2;P2;SDS_P1;SDS_P2;PMS_P1;PMS_P2;Temp;Humidity;BMP_temperature;BMP_pressure;BME280_temperature;BME280_humidity;BME280_pressure;Samples;Min_cycle;Max_cycle;Signal;HPM_P1;HPM_P2
2023/05/20 00:00:33;;;;;;;12.82;5.40;;;11.70;99.90;;;;;;5094813;28;20048;-66
2023/05/20 00:03:00;;;;;;;9.85;5.28;;;11.60;99.90;;;;;;5095765;28;20047;-67
2023/05/20 00:05:26;;;;;;;9.50;4.93;;;11.60;99.90;;;;;;5095082;28;20051;-66
2023/05/20 00:07:52;;;;;;;9.20;6.20;;;11.60;99.90;;;;;;5112190;27;20051;-66
2023/05/20 00:10:18;;;;;;;7.97;5.28;;;11.60;99.90;;;;;;5115066;27;20039;-66
2023/05/20 00:12:45;;;;;;;12.07;5.50;;;11.60;99.90;;;;;;5115752;27;20051;-67
2023/05/20 00:15:17;;;;;;;9.13;5.03;;;11.50;99.90;;;;;;5115770;27;20070;-67
2023/05/20 00:17:46;;;;;;;9.23;5.13;;;11.60;99.90;;;;;;5098672;28;20055;-66
2023/05/20 00:20:13;;;;;;;10.85;5.90;;;11.50;99.90;;;;;;5095548;28;20391;-66
2023/05/20 00:22:39;;;;;;;10.00;5.75;;;11.50;99.90;;;;;;5096620;28;20051;-65
2023/05/20 00:25:06;;;;;;;10.00;5.82;;;11.50;99.90;;;;;;5094959;28;20395;-66
2023/05/20 00:27:32;;;;;;;10.68;5.50;;;11.40;99.90;;;;;;5108867;27;20050;-67
2023/05/20 00:29:58;;;;;;;12.82;5.82;;;11.50;99.90;;;;;;5114592;28;20505;-67
2023/05/20 00:32:25;;;;;;;9.88;5.82;;;11.40;99.90;;;;;;5115250;27;20039;-65
2023/05/20 00:34:57;;;;;;;11.15;6.15;;;11.40;99.90;;;;;;5115502;27;20047;-66
2023/05/20 00:37:23;;;;;;;10.70;5.22;;;11.40;99.90;;;;;;5117736;28;20062;-67
2023/05/20 00:39:50;;;;;;;10.25;5.75;;;11.30;99.90;;;;;;5094474;28;20411;-66
2023/05/20 00:42:25;;;;;;;10.90;5.30;;;11.40;99.90;;;;;;5094825;28;20059;-66
2023/05/20 00:44:52;;;;;;;9.55;4.95;;;11.30;99.90;;;;;;5095156;28;20056;-66
2023/05/20 00:47:22;;;;;;;10.63;6.05;;;11.30;99.90;;;;;;5105503;28;20408;-67
2023/05/20 00:49:50;;;;;;;9.45;5.38;;;11.30;99.90;;;;;;5111724;28;20455;-67
2023/05/20 00:52:20;;;;;;;8.48;5.03;;;11.30;99.90;;;;;;5111580;28;20048;-66
2023/05/20 00:54:48;;;;;;;10.10;5.43;;;11.30;99.90;;;;;;5111986;28;20051;-67
2023/05/20 00:57:15;;;;;;;7.80;4.70;;;11.30;99.90;;;;;;5101018;28;20047;-66
2023/05/20 00:59:41;;;;;;;9.48;5.85;;;11.30;99.90;;;;;;5112499;28;20126;-66
2023/05/20 01:02:08;;;;;;;10.82;5.22;;;11.30;99.90;;;;;;5094822;28;20047;-67
2023/05/20 01:04:34;;;;;;;9.63;5.53;;;11.30;99.90;;;;;;5077938;28;20059;-66
2023/05/20 01:07:06;;;;;;;9.43;5.43;;;11.30;99.90;;;;;;5106334;28;20048;-66
2023/05/20 01:09:32;;;;;;;;;;;11.20;99.90;;;;;;5115975;28;20138;-66
2023/05/20 01:12:04;;;;;;;10.43;5.57;;;11.20;99.90;;;;;;5115531;28;19938;-67
2023/05/20 01:14:34;;;;;;;;;;;11.20;99.90;;;;;;5099424;28;20056;-66
2023/05/20 01:17:08;;;;;;;9.77;5.43;;;11.20;99.90;;;;;;5107360;28;19993;-66
2023/05/20 01:19:47;;;;;;;10.30;5.88;;;11.20;99.90;;;;;;5098179;28;20055;-67
2023/05/20 01:22:14;;;;;;;11.23;5.50;;;11.20;99.90;;;;;;5099330;28;20055;-66
2023/05/20 01:24:47;;;;;;;12.70;5.40;;;11.20;99.90;;;;;;5100194;28;20089;-66
2023/05/20 01:27:13;;;;;;;9.43;5.70;;;11.20;99.90;;;;;;5092822;28;20054;-67
2023/05/20 01:29:41;;;;;;;9.95;5.82;;;11.10;99.90;;;;;;5116548;28;20433;-66
2023/05/20 01:32:21;;;;;;;10.82;5.82;;;11.20;99.90;;;;;;5115958;28;20478;-67
2023/05/20 01:34:50;;;;;;;12.32;5.72;;;11.10;99.90;;;;;;5116542;28;20039;-67
2023/05/20 01:37:18;;;;;;;9.00;5.05;;;11.10;99.90;;;;;;5106064;28;20466;-66
2023/05/20 01:39:48;;;;;;;10.15;5.47;;;11.10;99.90;;;;;;5081324;28;20052;-67
2023/05/20 01:42:15;;;;;;;8.18;5.82;;;11.20;99.90;;;;;;5098125;28;20047;-66
2023/05/20 01:44:41;;;;;;;9.73;5.63;;;11.10;99.90;;;;;;5081484;28;20048;-66
2023/05/20 01:47:08;;;;;;;11.63;5.43;;;11.20;99.90;;;;;;5106606;28;20052;-67
2023/05/20 01:49:34;;;;;;;7.80;5.50;;;11.20;99.90;;;;;;5097574;28;20546;-67
2023/05/20 01:52:00;;;;;;;9.27;5.65;;;11.20;99.90;;;;;;5115028;28;20097;-66
2023/05/20 01:54:36;;;;;;;9.90;5.20;;;11.20;99.90;;;;;;5115040;28;20108;-67
2023/05/20 01:57:02;;;;;;;12.30;6.25;;;11.10;99.90;;;;;;5106504;28;20113;-67
2023/05/20 01:59:28;;;;;;;9.25;4.88;;;11.10;99.90;;;;;;5097620;28;20054;-67
2023/05/20 02:01:55;;;;;;;7.97;5.05;;;11.20;99.90;;;;;;5097696;28;20048;-65
2023/05/20 02:04:21;;;;;;;10.15;5.57;;;11.20;99.90;;;;;;5097597;28;20135;-66
2023/05/20 02:06:47;;;;;;;9.15;5.20;;;11.10;99.90;;;;;;5103300;28;20043;-66
2023/05/20 02:09:17;;;;;;;10.65;5.47;;;11.10;99.90;;;;;;5114653;28;20043;-67
2023/05/20 02:11:43;;;;;;;7.85;5.45;;;11.10;99.90;;;;;;5114604;28;20054;-66
2023/05/20 02:14:10;;;;;;;9.35;4.85;;;11.10;99.90;;;;;;5114734;28;20058;-67
2023/05/20 02:16:36;;;;;;;8.88;5.20;;;11.10;99.90;;;;;;5092407;28;20052;-66
2023/05/20 02:19:02;;;;;;;7.80;5.60;;;11.00;99.90;;;;;;5096416;28;20051;-67
2023/05/20 02:21:28;;;;;;;8.43;5.32;;;11.10;99.90;;;;;;5097234;28;20456;-67
2023/05/20 02:23:55;;;;;;;9.77;6.25;;;11.10;99.90;;;;;;5097330;28;20370;-66
2023/05/20 02:26:21;;;;;;;8.75;5.43;;;11.10;99.90;;;;;;5082547;28;20418;-67
2023/05/20 02:28:49;;;;;;;8.48;5.25;;;11.10;99.90;;;;;;5113825;28;20075;-66
2023/05/20 02:31:16;;;;;;;9.65;5.47;;;11.10;99.90;;;;;;5113964;28;20040;-67
2023/05/20 02:33:43;;;;;;;8.52;5.57;;;11.10;99.90;;;;;;5114140;28;20051;-66
2023/05/20 02:36:10;;;;;;;8.65;4.78;;;11.10;99.90;;;;;;5113227;28;20046;-67
2023/05/20 02:38:36;;;;;;;7.68;6.05;;;11.10;99.90;;;;;;5096920;28;20047;-66
2023/05/20 02:41:03;;;;;;;9.50;4.88;;;11.10;99.90;;;;;;5096901;28;20046;-66
2023/05/20 02:43:31;;;;;;;11.70;5.78;;;11.10;99.90;;;;;;5080344;28;20397;-67
2023/05/20 02:45:57;;;;;;;8.18;4.72;;;11.10;99.90;;;;;;5080307;27;20116;-66
2023/05/20 02:48:23;;;;;;;13.32;5.68;;;11.00;99.90;;;;;;5117124;27;20051;-66
2023/05/20 02:50:50;;;;;;;8.88;5.25;;;11.10;99.90;;;;;;5117171;27;20045;-67
2023/05/20 02:53:16;;;;;;;9.45;5.22;;;11.00;99.90;;;;;;5117784;27;20455;-67
2023/05/20 02:55:46;;;;;;;6.60;5.53;;;11.00;99.90;;;;;;5116921;27;20066;-67
2023/05/20 02:58:12;;;;;;;8.13;5.18;;;10.90;99.90;;;;;;5096407;28;20514;-67
2023/05/20 03:00:39;;;;;;;8.00;5.25;;;10.90;99.90;;;;;;5096441;28;20051;-67
2023/05/20 03:03:06;;;;;;;10.65;5.28;;;10.90;99.90;;;;;;5096739;28;20063;-66
2023/05/20 03:05:36;;;;;;;8.38;5.28;;;10.90;99.90;;;;;;5096566;28;20047;-66
2023/05/20 03:08:08;;;;;;;8.20;5.25;;;10.90;99.90;;;;;;5114174;27;20043;-67
2023/05/20 03:10:37;;;;;;;7.63;5.15;;;10.90;99.90;;;;;;5117281;27;20431;-67
2023/05/20 03:13:09;;;;;;;9.10;5.72;;;10.90;99.90;;;;;;5116931;27;20047;-67
2023/05/20 03:15:37;;;;;;;10.73;5.30;;;10.90;99.90;;;;;;5117177;27;20043;-67
2023/05/20 03:18:04;;;;;;;11.18;5.40;;;10.90;99.90;;;;;;5115002;27;20055;-67
2023/05/20 03:20:37;;;;;;;8.85;5.15;;;10.90;99.90;;;;;;5116662;27;20050;-67
2023/05/20 03:23:07;;;;;;;7.15;4.70;;;10.90;99.90;;;;;;5099693;27;20051;-68
2023/05/20 03:25:33;;;;;;;9.20;5.15;;;10.90;99.90;;;;;;5116478;27;20058;-67
2023/05/20 03:28:00;;;;;;;11.13;5.60;;;10.90;99.90;;;;;;5097175;28;20055;-69
2023/05/20 03:30:27;;;;;;;6.80;4.82;;;10.90;99.90;;;;;;5095666;28;20105;-67
2023/05/20 03:32:56;;;;;;;8.98;5.18;;;11.00;99.90;;;;;;5096014;28;20044;-68
2023/05/20 03:35:22;;;;;;;9.40;4.90;;;10.90;99.90;;;;;;5096383;28;20048;-67
2023/05/20 03:37:50;;;;;;;9.75;5.20;;;10.90;99.90;;;;;;5111916;27;20394;-67
2023/05/20 03:40:16;;;;;;;7.32;5.00;;;11.00;99.90;;;;;;5099291;27;20104;-68
2023/05/20 03:42:43;;;;;;;7.85;4.95;;;11.00;99.90;;;;;;5116337;27;20051;-66
2023/05/20 03:45:10;;;;;;;9.68;5.53;;;10.90;99.90;;;;;;5116328;27;20107;-68
2023/05/20 03:47:36;;;;;;;9.63;5.45;;;10.90;99.90;;;;;;5100330;28;20043;-67
2023/05/20 03:50:03;;;;;;;7.43;4.60;;;10.90;99.90;;;;;;5095612;28;20047;-67
2023/05/20 03:52:29;;;;;;;7.88;4.93;;;10.90;99.90;;;;;;5095819;28;20047;-67
2023/05/20 03:54:56;;;;;;;8.02;4.82;;;10.90;99.90;;;;;;5095603;28;20503;-66
2023/05/20 03:57:22;;;;;;;9.85;5.05;;;11.00;99.90;;;;;;5107824;27;20066;-67
2023/05/20 03:59:48;;;;;;;8.00;5.15;;;11.00;99.90;;;;;;5115761;27;20347;-67
2023/05/20 04:02:15;;;;;;;6.82;5.22;;;10.90;99.90;;;;;;5115803;27;20413;-67
2023/05/20 04:04:41;;;;;;;7.90;4.68;;;11.00;99.90;;;;;;5115985;27;20066;-67
2023/05/20 04:07:09;;;;;;;8.48;4.93;;;11.10;99.90;;;;;;5104236;28;20047;-67
2023/05/20 04:09:36;;;;;;;8.73;5.22;;;11.00;99.90;;;;;;5078295;28;20119;-67
2023/05/20 04:12:03;;;;;;;6.75;4.45;;;11.00;99.90;;;;;;5095234;28;20047;-68
2023/05/20 04:14:30;;;;;;;7.85;4.55;;;11.10;99.90;;;;;;5095579;28;20048;-68
2023/05/20 04:16:56;;;;;;;8.15;5.00;;;11.10;99.90;;;;;;5112592;28;20051;-67
2023/05/20 04:19:27;;;;;;;8.40;4.53;;;11.10;99.90;;;;;;5095330;28;20047;-67
2023/05/20 04:22:00;;;;;;;9.95;4.60;;;11.00;99.90;;;;;;5095590;28;20048;-67
2023/05/20 04:24:26;;;;;;;6.93;4.95;;;11.10;99.90;;;;;;5113160;28;20077;-67
2023/05/20 04:26:53;;;;;;;7.70;5.00;;;11.10;99.90;;;;;;5103175;27;20051;-67
2023/05/20 04:29:20;;;;;;;7.60;4.75;;;11.10;99.90;;;;;;5111411;28;20047;-67
2023/05/20 04:31:49;;;;;;;7.55;4.35;;;11.20;99.90;;;;;;5112070;28;20043;-67
2023/05/20 04:34:25;;;;;;;8.48;4.70;;;11.20;99.90;;;;;;5111634;28;20059;-66
2023/05/20 04:36:51;;;;;;;6.20;5.07;;;11.20;99.90;;;;;;5106442;28;20387;-68
2023/05/20 04:39:19;;;;;;;9.65;4.38;;;11.30;99.90;;;;;;5094715;28;20054;-66
2023/05/20 04:41:48;;;;;;;6.50;4.63;;;11.30;99.90;;;;;;5094642;28;20059;-67
2023/05/20 04:44:14;;;;;;;8.73;4.82;;;11.30;99.90;;;;;;5078352;28;20117;-67
2023/05/20 04:46:41;;;;;;;7.40;5.40;;;11.60;99.90;;;;;;5095177;28;20059;-68
2023/05/20 04:49:09;;;;;;;7.40;4.60;;;11.70;99.90;;;;;;5094593;28;20108;-67
2023/05/20 04:51:35;;;;;;;6.88;4.47;;;11.80;99.90;;;;;;5094598;28;20533;-67
2023/05/20 04:54:01;;;;;;;7.68;4.53;;;12.10;99.90;;;;;;5094948;28;20047;-67
2023/05/20 04:56:28;;;;;;;9.18;4.68;;;12.70;99.90;;;;;;5096243;28;20050;-67
2023/05/20 04:58:57;;;;;;;9.55;4.30;;;13.30;99.90;;;;;;5111248;28;20122;-67
2023/05/20 05:01:24;;;;;;;4.95;3.58;;;13.90;99.90;;;;;;5111478;28;20051;-67
2023/05/20 05:03:51;;;;;;;8.52;3.92;;;14.30;99.90;;;;;;5112002;28;20124;-68
2023/05/20 05:06:17;;;;;;;5.40;4.22;;;14.60;99.90;;;;;;5110815;28;20039;-68
2023/05/20 05:08:43;;;;;;;6.90;4.22;;;14.90;99.90;;;;;;5094465;28;20052;-66
2023/05/20 05:11:09;;;;;;;7.78;4.55;;;14.70;99.90;;;;;;5078243;28;20044;-68
2023/05/20 05:13:36;;;;;;;7.35;3.67;;;14.20;99.90;;;;;;5095303;28;20047;-67
2023/05/20 05:16:02;;;;;;;8.48;4.15;;;14.30;99.90;;;;;;5077784;28;20443;-67
2023/05/20 05:18:28;;;;;;;7.85;3.85;;;14.50;99.90;;;;;;5111929;28;20056;-67
2023/05/20 05:21:02;;;;;;;5.53;3.70;;;15.00;99.90;;;;;;5112011;28;20051;-67
2023/05/20 05:23:29;;;;;;;6.25;4.00;;;15.40;99.90;;;;;;5112011;28;20056;-67
2023/05/20 05:25:58;;;;;;;7.38;3.80;;;15.80;99.90;;;;;;5111420;28;20436;-68
2023/05/20 05:28:25;;;;;;;5.35;3.83;;;16.20;99.90;;;;;;5094158;28;20048;-67
2023/05/20 05:30:55;;;;;;;4.70;3.45;;;16.80;99.90;;;;;;5094949;28;20459;-69
2023/05/20 05:33:21;;;;;;;8.82;4.28;;;17.10;99.90;;;;;;5095139;28;20044;-67
2023/05/20 05:35:48;;;;;;;5.88;3.38;;;17.30;99.90;;;;;;5094646;28;20082;-68
2023/05/20 05:38:15;;;;;;;4.93;3.35;;;17.60;99.90;;;;;;5094760;28;20051;-68
2023/05/20 05:40:41;;;;;;;5.07;4.30;;;17.70;99.90;;;;;;5094780;28;20436;-68
2023/05/20 05:43:08;;;;;;;5.97;3.58;;;17.80;99.90;;;;;;5095510;28;20047;-68
2023/05/20 05:45:34;;;;;;;4.63;3.33;;;18.20;99.90;;;;;;5094950;28;20051;-68
2023/05/20 05:48:00;;;;;;;5.78;2.95;;;18.50;99.90;;;;;;5077037;28;20047;-67
2023/05/20 05:50:26;;;;;;;4.05;3.08;;;18.30;99.90;;;;;;5094534;28;20066;-67
2023/05/20 05:52:58;;;;;;;4.40;3.40;;;18.50;99.90;;;;;;5088341;28;20052;-67
2023/05/20 05:55:25;;;;;;;5.60;3.08;;;18.20;99.90;;;;;;5096169;28;20372;-67
2023/05/20 05:57:51;;;;;;;4.13;3.05;;;18.20;99.90;;;;;;5097786;28;20059;-68
2023/05/20 06:00:18;;;;;;;6.28;3.00;;;18.30;99.90;;;;;;5098218;28;20510;-67
2023/05/20 06:02:46;;;;;;;5.10;3.40;;;18.50;99.90;;;;;;5098544;28;20475;-68
2023/05/20 06:05:18;;;;;;;4.00;2.83;;;18.50;99.90;;;;;;5098199;28;20044;-67
2023/05/20 06:07:45;;;;;;;4.85;3.17;;;18.50;99.90;;;;;;5093540;28;20474;-68
2023/05/20 06:10:11;;;;;;;3.97;2.63;;;18.50;99.90;;;;;;5098217;28;20043;-67
2023/05/20 06:12:37;;;;;;;4.55;2.92;;;18.80;99.90;;;;;;5097984;28;20063;-67
2023/05/20 06:15:07;;;;;;;5.25;2.78;;;19.20;99.90;;;;;;5081125;28;20050;-67
2023/05/20 06:17:33;;;;;;;5.15;2.75;;;19.40;99.70;;;;;;5098052;28;20051;-67
2023/05/20 06:20:00;;;;;;;6.63;2.90;;;19.40;99.70;;;;;;5097426;28;20056;-68
2023/05/20 06:22:26;;;;;;;4.18;2.85;;;19.90;99.00;;;;;;5091703;27;20463;-67
2023/05/20 06:24:55;;;;;;;6.03;2.80;;;20.10;98.60;;;;;;5089177;28;20447;-67
2023/05/20 06:27:21;;;;;;;5.65;2.75;;;19.80;98.70;;;;;;5086748;28;20058;-67
2023/05/20 06:29:48;;;;;;;4.65;3.00;;;20.00;98.60;;;;;;5080711;28;20047;-68
2023/05/20 06:32:14;;;;;;;4.28;2.83;;;20.10;97.80;;;;;;5085861;28;20044;-68
2023/05/20 06:34:40;;;;;;;4.85;2.72;;;19.80;97.90;;;;;;5065658;28;20043;-67
2023/05/20 06:37:07;;;;;;;4.32;3.10;;;19.90;97.90;;;;;;5086467;28;20407;-67
2023/05/20 06:39:33;;;;;;;4.15;2.53;;;20.00;97.80;;;;;;5094117;28;20051;-68
2023/05/20 06:41:59;;;;;;;3.75;2.72;;;20.10;97.80;;;;;;5076397;28;20067;-67
2023/05/20 06:44:26;;;;;;;4.18;2.80;;;20.00;97.40;;;;;;5097897;28;20101;-67
2023/05/20 06:46:52;;;;;;;6.28;2.78;;;20.00;97.40;;;;;;5079745;28;20075;-67
2023/05/20 06:49:19;;;;;;;6.53;2.60;;;19.90;97.40;;;;;;5077226;28;20480;-66
2023/05/20 06:51:47;;;;;;;4.47;2.90;;;19.90;97.20;;;;;;5077199;28;20055;-67
2023/05/20 06:54:13;;;;;;;3.10;2.53;;;19.70;97.30;;;;;;5077476;28;20048;-66
2023/05/20 06:56:39;;;;;;;5.75;3.17;;;20.20;97.00;;;;;;5060726;28;20106;-68
2023/05/20 06:59:16;;;;;;;4.32;2.67;;;20.00;96.70;;;;;;5076543;28;20060;-67
2023/05/20 07:01:42;;;;;;;4.28;2.53;;;19.70;97.00;;;;;;5077167;28;20048;-67
2023/05/20 07:04:08;;;;;;;4.05;2.83;;;19.20;97.30;;;;;;5076634;28;20052;-68
2023/05/20 07:06:35;;;;;;;4.05;2.83;;;18.80;98.00;;;;;;5076680;28;20087;-67
2023/05/20 07:09:01;;;;;;;5.78;2.95;;;18.50;98.40;;;;;;5076926;28;20367;-66
2023/05/20 07:11:27;;;;;;;4.40;2.80;;;18.50;98.80;;;;;;5060030;28;20059;-66
2023/05/20 07:13:54;;;;;;;5.88;2.83;;;18.50;98.70;;;;;;5076708;28;20494;-66
2023/05/20 07:16:20;;;;;;;5.22;3.17;;;18.60;98.70;;;;;;5059426;28;20350;-66
2023/05/20 07:18:46;;;;;;;4.30;2.72;;;18.50;98.60;;;;;;5059313;28;20051;-66
2023/05/20 07:21:19;;;;;;;5.03;2.65;;;18.30;98.70;;;;;;5076396;28;20055;-67
2023/05/20 07:23:45;;;;;;;6.97;2.67;;;18.10;98.90;;;;;;5092235;28;20044;-67
2023/05/20 07:26:11;;;;;;;4.35;2.60;;;18.10;99.20;;;;;;5076492;28;20047;-67
2023/05/20 07:28:38;;;;;;;5.70;3.30;;;18.10;99.10;;;;;;5084152;27;20390;-67
2023/05/20 07:31:04;;;;;;;3.63;2.75;;;18.10;99.10;;;;;;5116345;27;20047;-66
2023/05/20 07:33:31;;;;;;;5.05;2.65;;;18.20;99.00;;;;;;5098503;27;20062;-68
2023/05/20 07:35:57;;;;;;;5.43;2.58;;;18.40;99.00;;;;;;5116823;27;20460;-64
2023/05/20 07:38:24;;;;;;;9.00;3.42;;;18.30;98.80;;;;;;5073167;28;20392;-67
2023/05/20 07:40:50;;;;;;;5.13;2.97;;;18.20;98.90;;;;;;5059184;28;20512;-66
2023/05/20 07:43:16;;;;;;;4.18;3.17;;;18.40;98.80;;;;;;5075859;28;20040;-66
2023/05/20 07:45:44;;;;;;;4.43;2.80;;;18.30;98.80;;;;;;5078991;28;20556;-67
2023/05/20 07:48:11;;;;;;;4.68;3.28;;;18.40;98.90;;;;;;5081897;28;20052;-66
2023/05/20 07:50:38;;;;;;;3.30;2.97;;;18.60;98.70;;;;;;5091536;28;20055;-67
2023/05/20 07:53:05;;;;;;;5.45;2.60;;;18.60;98.70;;;;;;5062178;28;20048;-66
2023/05/20 07:55:34;;;;;;;5.88;2.92;;;18.50;98.60;;;;;;5093797;28;20044;-65
2023/05/20 07:58:00;;;;;;;4.75;3.00;;;18.60;98.70;;;;;;5109771;28;20073;-66
2023/05/20 08:00:26;;;;;;;4.45;2.92;;;18.60;98.50;;;;;;5095945;28;20051;-66
2023/05/20 08:02:59;;;;;;;3.95;2.85;;;18.80;98.50;;;;;;5096018;28;20066;-66
2023/05/20 08:05:25;;;;;;;3.92;2.95;;;18.70;98.00;;;;;;5094430;28;20058;-66
2023/05/20 08:07:51;;;;;;;4.18;2.92;;;18.70;98.10;;;;;;5094532;28;20514;-65
2023/05/20 08:10:18;;;;;;;4.68;2.88;;;18.60;98.20;;;;;;5095892;28;20375;-67
2023/05/20 08:12:45;;;;;;;5.80;3.20;;;18.70;98.20;;;;;;5095986;28;20118;-68
2023/05/20 08:15:11;;;;;;;4.75;2.85;;;18.60;98.00;;;;;;5094953;28;20039;-66
2023/05/20 08:17:37;;;;;;;4.63;2.88;;;18.70;98.10;;;;;;5101215;27;20047;-66
2023/05/20 08:20:04;;;;;;;7.05;3.03;;;18.80;97.90;;;;;;5115607;27;20524;-65
2023/05/20 08:22:30;;;;;;;4.20;3.10;;;18.70;97.90;;;;;;5099826;28;20109;-66
2023/05/20 08:24:57;;;;;;;5.85;2.78;;;18.80;98.00;;;;;;5095876;28;20067;-66
2023/05/20 08:27:23;;;;;;;5.47;3.40;;;18.70;97.90;;;;;;5099070;27;20212;-67
2023/05/20 08:29:50;;;;;;;6.18;3.38;;;18.70;98.00;;;;;;5094894;28;20228;-66
2023/05/20 08:32:16;;;;;;;5.80;2.90;;;18.60;98.00;;;;;;5112575;28;20047;-66
2023/05/20 08:34:42;;;;;;;4.47;2.78;;;18.50;97.90;;;;;;5111894;28;20044;-68
2023/05/20 08:37:09;;;;;;;6.00;3.13;;;18.50;97.70;;;;;;5106141;28;20051;-67
2023/05/20 08:39:35;;;;;;;5.00;3.20;;;18.50;97.90;;;;;;5094710;28;20060;-66
2023/05/20 08:42:02;;;;;;;4.05;2.70;;;18.60;97.90;;;;;;5109753;28;20471;-67
2023/05/20 08:44:28;;;;;;;4.20;2.40;;;18.50;97.70;;;;;;5112537;28;20040;-66
2023/05/20 08:46:55;;;;;;;5.30;3.00;;;18.50;97.60;;;;;;5112332;28;20054;-68
2023/05/20 08:49:22;;;;;;;6.20;3.33;;;18.50;97.90;;;;;;5094184;28;20467;-67
2023/05/20 08:51:48;;;;;;;5.72;2.72;;;18.50;98.00;;;;;;5112719;28;20048;-67
2023/05/20 08:54:15;;;;;;;4.97;2.50;;;18.60;98.10;;;;;;5078692;28;20051;-68
2023/05/20 08:56:43;;;;;;;3.03;2.40;;;18.70;98.00;;;;;;5094881;28;20114;-67
2023/05/20 08:59:09;;;;;;;4.13;2.53;;;18.90;97.80;;;;;;5095286;28;20059;-67
2023/05/20 09:01:44;;;;;;;5.43;2.80;;;19.10;97.60;;;;;;5113261;28;20059;-65
2023/05/20 09:04:10;;;;;;;5.40;2.80;;;19.20;97.10;;;;;;5078432;28;20070;-67
2023/05/20 09:06:44;;;;;;;5.22;2.95;;;19.20;97.00;;;;;;5094625;28;20080;-66
2023/05/20 09:09:12;;;;;;;4.15;2.60;;;19.20;97.10;;;;;;5095157;28;20403;-67
2023/05/20 09:11:40;;;;;;;4.45;2.80;;;19.10;96.90;;;;;;5095128;28;20048;-66
2023/05/20 09:14:22;;;;;;;3.90;2.45;;;19.20;97.20;;;;;;5078545;28;20375;-67
2023/05/20 09:16:49;;;;;;;4.25;2.75;;;19.30;96.80;;;;;;5094641;28;20044;-67
2023/05/20 09:19:15;;;;;;;4.68;2.70;;;19.30;97.00;;;;;;5112526;28;20047;-67
2023/05/20 09:21:42;;;;;;;4.50;2.70;;;19.50;97.00;;;;;;5095318;28;20047;-67
2023/05/20 09:24:08;;;;;;;3.65;2.60;;;19.70;96.60;;;;;;5078587;28;20066;-66
2023/05/20 09:26:35;;;;;;;6.65;2.85;;;19.70;96.50;;;;;;5096989;28;20056;-66
2023/05/20 09:29:02;;;;;;;5.88;2.83;;;19.70;96.40;;;;;;5099706;28;20130;-66
2023/05/20 09:31:32;;;;;;;5.82;2.30;;;19.80;96.30;;;;;;5099398;28;20044;-63
2023/05/20 09:34:03;;;;;;;3.67;2.47;;;19.80;96.00;;;;;;5098747;28;20421;-66
2023/05/20 09:36:33;;;;;;;4.82;2.60;;;19.80;95.80;;;;;;5097349;28;20054;-66
2023/05/20 09:39:04;;;;;;;5.35;2.55;;;19.80;95.80;;;;;;5099683;28;20100;-66
2023/05/20 09:41:38;;;;;;;;;;;19.80;95.90;;;;;;5083455;28;20402;-66
2023/05/20 09:44:22;;;;;;;4.32;2.67;;;19.90;95.70;;;;;;5099515;28;19926;-66
2023/05/20 09:46:50;;;;;;;4.63;3.05;;;19.90;95.50;;;;;;5082663;28;20055;-66
2023/05/20 09:49:19;;;;;;;4.25;2.72;;;20.00;95.60;;;;;;5098947;28;20451;-67
2023/05/20 09:51:48;;;;;;;4.20;2.60;;;19.90;95.50;;;;;;5117373;28;20054;-66
2023/05/20 09:54:16;;;;;;;6.97;3.10;;;19.90;95.40;;;;;;5099437;28;20313;-65
2023/05/20 09:56:43;;;;;;;4.75;3.03;;;19.90;95.50;;;;;;5098740;28;20054;-66
2023/05/20 09:59:10;;;;;;;5.68;2.85;;;19.90;95.30;;;;;;5098939;28;20052;-65
2023/05/20 10:01:36;;;;;;;4.95;2.70;;;20.00;95.30;;;;;;5116681;28;20040;-66
2023/05/20 10:04:06;;;;;;;4.28;2.85;;;19.90;95.10;;;;;;5099103;28;20074;-66
2023/05/20 10:06:47;;;;;;;7.30;3.10;;;19.90;95.60;;;;;;5098824;28;20356;-65
2023/05/20 10:09:42;;;;;;;4.97;2.22;;;19.90;95.40;;;;;;5098826;28;20095;-66
2023/05/20 10:12:27;;;;;;;;;;;19.80;94.80;;;;;;5100048;28;20148;-66
2023/05/20 10:15:15;;;;;;;4.28;2.42;;;19.80;95.00;;;;;;5099751;28;19927;-65
2023/05/20 10:18:19;;;;;;;4.00;2.88;;;19.80;95.30;;;;;;5082271;28;20067;-65
2023/05/20 10:20:50;;;;;;;3.67;2.80;;;19.90;95.60;;;;;;5098806;28;20047;-66
2023/05/20 10:23:21;;;;;;;5.05;2.83;;;20.10;95.10;;;;;;5098683;28;20093;-65
2023/05/20 10:25:52;;;;;;;4.80;3.05;;;20.20;94.80;;;;;;5099379;28;20084;-65
2023/05/20 10:28:34;;;;;;;3.33;2.50;;;20.20;95.10;;;;;;5098881;28;20048;-65
2023/05/20 10:31:02;;;;;;;4.07;2.63;;;20.30;95.10;;;;;;5096783;28;20044;-66
2023/05/20 10:33:40;;;;;;;4.35;2.55;;;20.40;94.90;;;;;;5078808;28;20066;-65
2023/05/20 10:36:06;;;;;;;5.00;2.58;;;20.30;94.50;;;;;;5116537;28;20055;-66
2023/05/20 10:38:32;;;;;;;4.53;2.58;;;20.30;94.60;;;;;;5057931;28;20056;-66
2023/05/20 10:41:08;;;;;;;4.00;2.33;;;20.20;94.90;;;;;;5058478;28;20052;-64
2023/05/20 10:43:34;;;;;;;4.53;2.75;;;20.20;94.10;;;;;;5058514;28;20063;-64
2023/05/20 10:46:00;;;;;;;4.00;2.35;;;20.10;94.30;;;;;;5058307;28;20048;-65
2023/05/20 10:48:31;;;;;;;4.45;2.40;;;20.30;94.50;;;;;;5076807;28;20101;-65
2023/05/20 10:51:05;;;;;;;3.60;2.30;;;20.50;94.10;;;;;;5061519;28;20048;-65
2023/05/20 10:53:39;;;;;;;3.72;2.17;;;20.50;93.70;;;;;;5078114;28;20094;-65
2023/05/20 10:56:16;;;;;;;4.45;2.60;;;20.40;93.50;;;;;;5078106;28;20044;-65
2023/05/20 10:58:43;;;;;;;4.65;2.38;;;20.20;93.50;;;;;;5057964;28;20056;-65
2023/05/20 11:01:10;;;;;;;3.53;2.08;;;20.20;93.60;;;;;;5058026;28;20050;-65
2023/05/20 11:03:36;;;;;;;4.05;2.83;;;20.20;93.90;;;;;;5041722;28;20049;-66
2023/05/20 11:06:18;;;;;;;3.45;2.20;;;20.30;94.10;;;;;;5057706;28;20056;-66
2023/05/20 11:08:45;;;;;;;5.45;2.75;;;20.40;94.00;;;;;;5057775;28;20121;-65
2023/05/20 11:11:13;;;;;;;3.08;2.65;;;20.40;94.10;;;;;;5057996;28;20041;-65
2023/05/20 11:13:40;;;;;;;3.40;2.55;;;20.40;93.90;;;;;;5057889;28;20110;-66
2023/05/20 11:16:06;;;;;;;6.38;2.58;;;20.40;93.70;;;;;;5057723;28;20070;-65
2023/05/20 11:18:33;;;;;;;3.63;2.40;;;20.50;94.10;;;;;;5074544;28;20064;-65
2023/05/20 11:21:00;;;;;;;5.00;2.78;;;20.60;93.90;;;;;;5074272;28;20057;-65
2023/05/20 11:23:28;;;;;;;4.25;2.42;;;20.60;93.80;;;;;;5057579;28;20056;-65
2023/05/20 11:25:55;;;;;;;5.05;2.72;;;20.50;93.50;;;;;;5041116;28;20055;-65
2023/05/20 11:28:25;;;;;;;9.13;2.80;;;20.40;93.70;;;;;;5073971;28;20054;-65
2023/05/20 11:30:52;;;;;;;4.00;2.58;;;20.40;94.10;;;;;;5076610;28;20040;-66
2023/05/20 11:33:18;;;;;;;10.80;3.13;;;20.50;94.50;;;;;;5077043;28;20055;-66
2023/05/20 11:35:50;;;;;;;3.97;2.70;;;20.60;94.40;;;;;;5076172;28;20051;-67
2023/05/20 11:38:16;;;;;;;5.43;2.95;;;20.80;93.70;;;;;;5075873;28;20060;-67
2023/05/20 11:40:53;;;;;;;3.40;2.25;;;20.60;93.70;;;;;;5076416;28;20055;-66
2023/05/20 11:43:20;;;;;;;3.88;2.22;;;20.70;94.00;;;;;;5076603;28;20044;-66
2023/05/20 11:45:52;;;;;;;6.53;2.90;;;20.90;93.60;;;;;;5060029;28;20047;-66
2023/05/20 11:48:19;;;;;;;5.40;2.25;;;21.00;93.50;;;;;;5075959;28;20044;-65
2023/05/20 11:50:46;;;;;;;14.27;3.22;;;21.00;93.50;;;;;;5075843;28;20043;-66
2023/05/20 11:53:17;;;;;;;4.50;2.65;;;21.10;93.50;;;;;;5076243;28;20054;-66
2023/05/20 11:55:55;;;;;;;4.75;2.85;;;21.10;93.30;;;;;;5059443;28;20425;-66
2023/05/20 11:58:24;;;;;;;3.13;1.98;;;21.10;93.60;;;;;;5075440;28;20055;-66
2023/05/20 12:00:51;;;;;;;9.75;2.75;;;21.10;93.80;;;;;;5076916;28;20048;-65
2023/05/20 12:03:18;;;;;;;3.67;3.00;;;21.00;93.60;;;;;;5076958;28;20387;-65
2023/05/20 12:05:46;;;;;;;4.22;2.58;;;20.80;93.70;;;;;;5076322;28;20421;-65
2023/05/20 12:08:13;;;;;;;5.50;2.63;;;20.80;93.80;;;;;;5076325;28;20051;-65
2023/05/20 12:10:39;;;;;;;3.85;2.30;;;20.80;93.70;;;;;;5059546;28;20051;-65
2023/05/20 12:13:12;;;;;;;4.18;2.55;;;20.70;93.80;;;;;;5076021;28;20048;-65
2023/05/20 12:15:39;;;;;;;4.85;2.65;;;20.70;93.80;;;;;;5075603;28;20395;-65
2023/05/20 12:18:05;;;;;;;4.80;2.42;;;20.80;93.90;;;;;;5075592;28;20101;-65
2023/05/20 12:20:35;;;;;;;5.88;3.00;;;21.00;93.70;;;;;;5076237;28;20064;-64
2023/05/20 12:23:02;;;;;;;5.38;2.50;;;21.00;93.60;;;;;;5076842;28;20169;-65
2023/05/20 12:25:29;;;;;;;3.28;2.20;;;20.80;93.60;;;;;;5076460;28;20052;-66
2023/05/20 12:27:55;;;;;;;4.50;2.42;;;20.80;93.90;;;;;;5076890;28;20056;-65
2023/05/20 12:30:22;;;;;;;6.38;2.72;;;20.80;93.70;;;;;;5077331;28;20114;-65
2023/05/20 12:32:50;;;;;;;4.03;2.33;;;20.90;93.60;;;;;;5055818;28;20108;-66
2023/05/20 12:35:24;;;;;;;3.40;2.28;;;20.90;93.20;;;;;;5046776;28;20048;-65
2023/05/20 12:37:50;;;;;;;5.28;2.70;;;21.10;93.50;;;;;;5074063;28;20052;-65
2023/05/20 12:40:16;;;;;;;4.07;2.45;;;21.30;93.30;;;;;;5058300;28;20048;-65
2023/05/20 12:42:43;;;;;;;4.18;2.47;;;21.30;93.20;;;;;;5075758;28;20097;-64
2023/05/20 12:45:11;;;;;;;4.60;2.20;;;21.40;93.20;;;;;;5074561;28;20043;-65
2023/05/20 12:47:37;;;;;;;3.85;2.50;;;21.60;93.10;;;;;;5074078;28;20048;-66
2023/05/20 12:50:04;;;;;;;5.28;2.53;;;21.50;92.90;;;;;;5092874;28;20044;-64
2023/05/20 12:52:30;;;;;;;3.67;2.58;;;21.40;93.00;;;;;;5075152;28;20154;-65